Time;durP1;ratioP1;P1;durP2;ratioP2;P2;SDS_P1;SDS_P2;PMS_P1;PMS_P2;Temp;Humidity;BMP_temperature;BMP_pressure;BME280_temperature;BME280_humidity;BME280_pressure;Samples;Min_cycle;Max_cycle;Signal;HPM_P1;HPM_P2
2022/09/06 00:00:45;;;;;;;3.73;1.70;;;18.00;57.70;;;;;;5097821;28;20496;-70
2022/09/06 00:03:13;;;;;;;2.53;1.60;;;18.00;57.90;;;;;;5097871;28;20849;-70
2022/09/06 00:05:42;;;;;;;4.90;1.80;;;18.00;58.20;;;;;;5097806;28;20540;-70
2022/09/06 00:08:09;;;;;;;3.23;2.80;;;17.90;58.10;;;;;;5097552;28;20504;-70
2022/09/06 00:10:37;;;;;;;2.00;1.43;;;17.90;58.20;;;;;;5097446;28;20457;-70
2022/09/06 00:13:05;;;;;;;2.93;1.40;;;17.80;58.00;;;;;;5096977;28;20485;-69
2022/09/06 00:15:33;;;;;;;4.43;1.40;;;17.80;58.30;;;;;;5097481;28;20445;-70
2022/09/06 00:18:01;;;;;;;2.17;1.33;;;17.80;58.40;;;;;;5097355;28;20453;-69
2022/09/06 00:20:30;;;;;;;1.47;1.37;;;17.70;58.30;;;;;;5096978;28;20540;-70
2022/09/06 00:22:58;;;;;;;1.50;1.13;;;17.70;58.30;;;;;;5097432;28;20552;-70
2022/09/06 00:25:25;;;;;;;4.70;1.87;;;17.70;58.30;;;;;;5097002;28;20483;-71
2022/09/06 00:27:55;;;;;;;4.00;2.17;;;17.70;58.40;;;;;;5097195;28;20491;-70
2022/09/06 00:30:22;;;;;;;1.70;1.27;;;17.60;58.50;;;;;;5097027;28;20468;-70
2022/09/06 00:32:49;;;;;;;2.30;1.40;;;17.60;58.50;;;;;;5097144;28;20491;-71
2022/09/06 00:35:17;;;;;;;2.47;1.20;;;17.60;58.30;;;;;;5096793;28;20523;-71
2022/09/06 00:37:45;;;;;;;2.33;1.37;;;17.60;58.50;;;;;;5096819;28;20489;-70
2022/09/06 00:40:13;;;;;;;1.90;1.50;;;17.50;58.70;;;;;;5095471;28;20537;-71
2022/09/06 00:42:40;;;;;;;4.17;1.47;;;17.50;58.80;;;;;;5096980;28;20560;-70
2022/09/06 00:45:10;;;;;;;5.67;1.37;;;17.40;58.80;;;;;;5096775;28;20962;-70
2022/09/06 00:47:40;;;;;;;3.10;1.40;;;17.40;59.00;;;;;;5096948;28;20536;-70
2022/09/06 00:50:08;;;;;;;2.20;1.50;;;17.40;58.90;;;;;;5096786;28;20458;-70
2022/09/06 00:52:36;;;;;;;2.23;1.23;;;17.30;59.10;;;;;;5096230;28;20564;-71
2022/09/06 00:55:06;;;;;;;5.93;1.43;;;17.30;59.10;;;;;;5096616;28;20548;-69
2022/09/06 00:57:33;;;;;;;2.43;1.70;;;17.30;59.50;;;;;;5096651;28;20500;-70
2022/09/06 01:00:02;;;;;;;3.10;1.20;;;17.30;59.50;;;;;;5096068;28;20544;-70
2022/09/06 01:02:28;;;;;;;1.90;1.27;;;17.20;59.30;;;;;;5096585;28;20454;-70
2022/09/06 01:04:56;;;;;;;3.03;2.00;;;17.20;59.50;;;;;;5096526;28;20536;-70
2022/09/06 01:07:35;;;;;;;2.13;1.20;;;17.20;59.60;;;;;;5096832;28;20549;-71
2022/09/06 01:10:28;;;;;;;2.43;1.63;;;17.20;59.60;;;;;;5097178;28;20495;-71
2022/09/06 01:13:03;;;;;;;3.53;1.27;;;17.10;59.70;;;;;;5096529;28;20532;-71
2022/09/06 01:15:36;;;;;;;1.47;1.10;;;17.10;59.90;;;;;;5096073;28;20539;-71
2022/09/06 01:18:14;;;;;;;3.33;1.47;;;17.10;59.90;;;;;;5097339;28;20533;-71
2022/09/06 01:20:49;;;;;;;3.23;1.80;;;17.00;60.30;;;;;;5097334;28;20491;-71
2022/09/06 01:23:39;;;;;;;2.03;1.20;;;17.00;60.50;;;;;;5097120;28;20898;-70
2022/09/06 01:26:33;;;;;;;1.93;1.10;;;17.00;60.70;;;;;;5092015;28;20544;-71
2022/09/06 01:29:03;;;;;;;3.43;1.40;;;17.00;60.70;;;;;;5096299;28;20520;-70
2022/09/06 01:31:38;;;;;;;1.40;1.23;;;17.00;61.00;;;;;;5093863;28;20524;-70
2022/09/06 01:34:21;;;;;;;4.50;1.30;;;16.90;61.00;;;;;;5093978;28;20563;-70
2022/09/06 01:36:52;;;;;;;5.00;1.37;;;16.90;60.90;;;;;;5093943;28;20528;-71
2022/09/06 01:39:24;;;;;;;2.57;1.20;;;16.90;61.30;;;;;;5093820;28;20469;-70
2022/09/06 01:41:51;;;;;;;2.27;1.17;;;16.90;61.80;;;;;;5093646;28;20544;-70
2022/09/06 01:44:20;;;;;;;1.60;1.17;;;16.90;61.70;;;;;;5093660;28;20806;-70
2022/09/06 01:46:55;;;;;;;2.20;1.20;;;16.90;61.80;;;;;;5093575;28;20806;-70
2022/09/06 01:49:37;;;;;;;2.73;2.07;;;16.80;61.70;;;;;;5093689;28;20891;-70
2022/09/06 01:52:11;;;;;;;3.00;1.33;;;16.80;62.20;;;;;;5093712;28;20524;-69
2022/09/06 01:54:51;;;;;;;2.73;1.30;;;16.80;62.00;;;;;;5093409;28;20898;-69
2022/09/06 01:57:30;;;;;;;1.90;1.33;;;16.80;62.20;;;;;;5093797;28;20520;-69
2022/09/06 02:00:07;;;;;;;2.50;2.10;;;16.80;62.70;;;;;;5093493;28;20521;-70
2022/09/06 02:02:45;;;;;;;6.53;1.63;;;16.80;62.30;;;;;;5093550;28;20537;-70
2022/09/06 02:05:19;;;;;;;4.67;1.40;;;16.80;62.90;;;;;;5093330;28;20822;-69
2022/09/06 02:07:48;;;;;;;4.60;1.37;;;16.80;63.10;;;;;;5093371;28;20460;-69
2022/09/06 02:10:21;;;;;;;3.10;2.50;;;16.80;63.10;;;;;;5093498;28;20529;-69
2022/09/06 02:12:53;;;;;;;2.17;1.40;;;16.80;63.20;;;;;;5092974;28;20857;-69
2022/09/06 02:15:25;;;;;;;3.10;1.30;;;16.80;63.30;;;;;;5092846;28;20513;-70
2022/09/06 02:17:58;;;;;;;3.30;1.20;;;16.80;63.20;;;;;;5093402;28;20529;-70
2022/09/06 02:20:29;;;;;;;1.40;1.17;;;16.80;63.50;;;;;;5092977;28;20529;-70
2022/09/06 02:23:01;;;;;;;3.63;1.90;;;16.80;63.80;;;;;;5093044;28;20438;-70
2022/09/06 02:25:33;;;;;;;1.77;1.17;;;16.80;64.30;;;;;;5093178;28;20942;-69
2022/09/06 02:28:01;;;;;;;2.80;1.47;;;16.70;64.50;;;;;;5092523;28;20544;-69
2022/09/06 02:30:29;;;;;;;1.70;1.27;;;16.70;64.80;;;;;;5093244;28;20628;-70
2022/09/06 02:33:00;;;;;;;4.53;2.30;;;16.70;65.20;;;;;;5093343;28;20556;-70
2022/09/06 02:35:27;;;;;;;2.27;1.63;;;16.70;65.80;;;;;;5093068;28;20544;-70
2022/09/06 02:37:55;;;;;;;3.73;2.63;;;16.60;66.00;;;;;;5092809;28;20497;-70
2022/09/06 02:40:22;;;;;;;3.03;1.70;;;16.60;66.70;;;;;;5092702;28;20522;-69
2022/09/06 02:42:49;;;;;;;2.53;1.30;;;16.60;66.90;;;;;;5092848;28;20548;-70
2022/09/06 02:45:16;;;;;;;2.20;1.50;;;16.60;67.40;;;;;;5092689;28;20540;-70
2022/09/06 02:47:44;;;;;;;7.10;1.40;;;16.50;67.90;;;;;;5092570;28;20488;-70
2022/09/06 02:50:12;;;;;;;3.87;1.90;;;16.50;68.30;;;;;;5092801;28;20485;-69
2022/09/06 02:52:39;;;;;;;2.37;1.40;;;16.50;69.30;;;;;;5093648;28;20526;-69
2022/09/06 02:55:07;;;;;;;2.20;1.27;;;16.50;69.80;;;;;;5094725;28;20560;-69
2022/09/06 02:57:34;;;;;;;1.80;1.30;;;16.50;70.20;;;;;;5094683;28;20545;-70
2022/09/06 03:00:01;;;;;;;3.17;1.40;;;16.40;70.80;;;;;;5094856;28;20453;-70
2022/09/06 03:02:28;;;;;;;2.27;1.30;;;16.40;71.60;;;;;;5095890;28;20552;-70
2022/09/06 03:04:56;;;;;;;2.43;1.43;;;16.40;72.00;;;;;;5099026;28;20532;-70
2022/09/06 03:07:23;;;;;;;3.87;1.67;;;16.40;72.50;;;;;;5098782;28;20453;-70
2022/09/06 03:09:50;;;;;;;2.23;1.70;;;16.40;73.30;;;;;;5098673;28;20457;-70
2022/09/06 03:12:17;;;;;;;1.77;1.50;;;16.40;73.90;;;;;;5098304;28;20917;-69
2022/09/06 03:14:44;;;;;;;2.50;1.50;;;16.40;74.50;;;;;;5098164;28;21028;-70
2022/09/06 03:17:10;;;;;;;3.30;1.73;;;16.30;74.80;;;;;;5098225;28;20548;-70
2022/09/06 03:19:37;;;;;;;4.17;1.73;;;16.30;75.60;;;;;;5098292;28;20551;-70
2022/09/06 03:22:06;;;;;;;2.60;1.50;;;16.30;76.30;;;;;;5098095;28;20556;-70
2022/09/06 03:24:32;;;;;;;1.83;1.50;;;16.30;76.70;;;;;;5098079;28;20453;-70
2022/09/06 03:26:59;;;;;;;1.80;1.47;;;16.30;77.50;;;;;;5097985;28;20457;-70
2022/09/06 03:29:26;;;;;;;1.70;1.40;;;16.20;77.90;;;;;;5098440;28;20521;-69
2022/09/06 03:31:53;;;;;;;1.80;1.20;;;16.30;78.70;;;;;;5098380;28;20548;-70
2022/09/06 03:34:20;;;;;;;1.77;1.03;;;16.20;79.10;;;;;;5098224;28;20644;-70
2022/09/06 03:36:46;;;;;;;3.50;1.43;;;16.20;79.80;;;;;;5098173;28;20564;-70
2022/09/06 03:39:15;;;;;;;1.77;1.23;;;16.20;80.80;;;;;;5097863;28;20492;-69
2022/09/06 03:41:42;;;;;;;1.70;1.40;;;16.20;81.60;;;;;;5098168;28;20623;-70
2022/09/06 03:44:09;;;;;;;2.23;1.70;;;16.20;81.70;;;;;;5098103;28;21009;-71
2022/09/06 03:46:36;;;;;;;1.57;1.17;;;16.10;82.50;;;;;;5099043;28;20997;-70
2022/09/06 03:49:03;;;;;;;2.27;1.33;;;16.10;83.10;;;;;;5099650;28;20827;-70
2022/09/06 03:51:29;;;;;;;2.97;1.43;;;16.10;83.40;;;;;;5098324;28;20564;-70
2022/09/06 03:53:57;;;;;;;1.73;1.33;;;16.10;83.60;;;;;;5097924;28;20561;-70
2022/09/06 03:56:25;;;;;;;3.40;1.50;;;16.20;84.20;;;;;;5097726;28;20457;-70
2022/09/06 03:58:52;;;;;;;2.20;1.43;;;16.20;84.30;;;;;;5097751;28;20544;-70
2022/09/06 04:01:19;;;;;;;1.90;1.40;;;16.20;84.70;;;;;;5097486;28;20552;-70
2022/09/06 04:03:46;;;;;;;4.73;1.50;;;16.20;85.10;;;;;;5097293;28;20453;-70
2022/09/06 04:06:13;;;;;;;1.90;1.30;;;16.20;85.80;;;;;;5097595;28;20499;-70
2022/09/06 04:08:40;;;;;;;2.03;1.50;;;16.20;86.30;;;;;;5097527;28;20489;-70
2022/09/06 04:11:07;;;;;;;2.17;1.70;;;16.10;87.10;;;;;;5097850;28;20496;-70
2022/09/06 04:13:36;;;;;;;5.40;4.03;;;16.10;87.50;;;;;;5097083;28;20529;-70
2022/09/06 04:16:03;;;;;;;3.17;2.37;;;16.20;88.50;;;;;;5097334;28;20488;-70
2022/09/06 04:18:30;;;;;;;5.10;1.73;;;16.20;88.70;;;;;;5097632;28;20547;-70
2022/09/06 04:20:57;;;;;;;4.90;2.07;;;16.20;89.50;;;;;;5097505;28;20544;-70
2022/09/06 04:23:25;;;;;;;3.40;1.50;;;16.10;89.00;;;;;;5096946;28;20854;-71
2022/09/06 04:25:55;;;;;;;1.93;1.37;;;16.10;89.70;;;;;;5097639;28;20545;-71
2022/09/06 04:28:23;;;;;;;5.00;1.70;;;16.10;90.00;;;;;;5097811;28;20504;-71
2022/09/06 04:30:54;;;;;;;3.47;1.60;;;16.10;90.00;;;;;;5097910;28;20834;-70
2022/09/06 04:33:24;;;;;;;7.30;2.00;;;16.00;90.30;;;;;;5097105;28;20548;-70
2022/09/06 04:35:51;;;;;;;2.73;1.80;;;16.00;90.70;;;;;;5097448;28;20437;-70
2022/09/06 04:38:18;;;;;;;2.57;1.93;;;16.00;90.80;;;;;;5097297;28;20855;-70
2022/09/06 04:40:45;;;;;;;2.57;1.97;;;16.00;91.00;;;;;;5097020;28;20544;-71
2022/09/06 04:43:12;;;;;;;3.20;2.27;;;16.00;91.30;;;;;;5096939;28;20532;-70
2022/09/06 04:45:39;;;;;;;1.50;1.40;;;16.00;91.40;;;;;;5096778;28;20544;-70
2022/09/06 04:48:07;;;;;;;3.50;1.80;;;16.00;91.80;;;;;;5096939;28;20544;-70
2022/09/06 04:50:34;;;;;;;2.50;1.67;;;16.00;92.10;;;;;;5096660;28;20488;-71
2022/09/06 04:53:01;;;;;;;2.20;1.80;;;16.00;92.20;;;;;;5096618;28;20528;-70
2022/09/06 04:55:30;;;;;;;2.23;1.50;;;16.00;92.40;;;;;;5096912;28;20477;-71
2022/09/06 04:57:58;;;;;;;1.93;1.73;;;16.00;92.50;;;;;;5096849;28;20913;-70
2022/09/06 05:00:25;;;;;;;2.60;1.80;;;16.00;92.80;;;;;;5096661;28;20442;-70
2022/09/06 05:02:52;;;;;;;1.90;1.40;;;16.00;92.90;;;;;;5096486;28;20981;-70
2022/09/06 05:05:21;;;;;;;3.20;1.60;;;16.00;93.10;;;;;;5096497;28;20453;-70
2022/09/06 05:07:48;;;;;;;4.60;1.60;;;15.90;93.20;;;;;;5096599;28;21012;-70
2022/09/06 05:10:15;;;;;;;2.10;1.50;;;16.00;93.50;;;;;;5076977;28;20868;-70
2022/09/06 05:12:41;;;;;;;2.63;1.97;;;16.00;93.90;;;;;;5075299;28;21041;-70
2022/09/06 05:15:09;;;;;;;2.07;1.87;;;16.00;94.00;;;;;;5075854;28;20477;-72
2022/09/06 05:17:36;;;;;;;2.57;1.60;;;16.00;94.20;;;;;;5075855;28;20458;-70
2022/09/06 05:20:04;;;;;;;4.13;1.83;;;16.00;94.20;;;;;;5075809;28;20500;-70
2022/09/06 05:22:32;;;;;;;3.20;1.60;;;16.00;94.50;;;;;;5076031;28;20464;-71
2022/09/06 05:24:59;;;;;;;3.30;2.07;;;16.00;94.50;;;;;;5075541;28;20537;-70
2022/09/06 05:27:26;;;;;;;5.00;1.50;;;16.10;94.40;;;;;;5075477;28;20553;-72
2022/09/06 05:29:53;;;;;;;1.93;1.57;;;16.10;94.40;;;;;;5075559;28;20500;-71
2022/09/06 05:32:20;;;;;;;4.83;1.47;;;16.10;94.70;;;;;;5075980;28;20486;-71
2022/09/06 05:34:47;;;;;;;2.77;1.67;;;16.10;94.80;;;;;;5076328;28;20498;-70
2022/09/06 05:37:14;;;;;;;4.53;1.57;;;16.10;94.70;;;;;;5074941;28;20497;-71
2022/09/06 05:39:42;;;;;;;7.40;1.47;;;16.10;94.70;;;;;;5075293;28;20770;-70
2022/09/06 05:42:09;;;;;;;3.57;2.20;;;16.20;94.90;;;;;;5075225;28;20562;-71
2022/09/06 05:44:37;;;;;;;2.17;1.60;;;16.20;95.50;;;;;;5075382;28;20454;-71
2022/09/06 05:47:04;;;;;;;2.03;1.80;;;16.20;95.40;;;;;;5075100;28;20549;-71
2022/09/06 05:49:32;;;;;;;1.70;1.53;;;16.20;95.00;;;;;;5079711;28;20453;-71
2022/09/06 05:51:59;;;;;;;2.90;1.30;;;16.30;95.20;;;;;;5078985;28;20469;-70
2022/09/06 05:54:26;;;;;;;2.17;1.97;;;16.30;95.40;;;;;;5095377;28;20473;-71
2022/09/06 05:56:54;;;;;;;5.20;1.83;;;16.30;95.40;;;;;;5095300;28;20544;-71
2022/09/06 05:59:21;;;;;;;4.43;2.83;;;16.40;95.80;;;;;;5095196;28;20999;-70
2022/09/06 06:01:49;;;;;;;1.63;1.50;;;16.40;95.80;;;;;;5094949;28;20522;-71
2022/09/06 06:04:17;;;;;;;3.00;1.83;;;16.50;95.30;;;;;;5095990;28;20446;-70
2022/09/06 06:06:45;;;;;;;7.30;1.77;;;16.60;95.10;;;;;;5096211;28;20461;-70
2022/09/06 06:09:11;;;;;;;2.70;1.67;;;16.60;94.60;;;;;;5095046;28;20571;-70
2022/09/06 06:11:39;;;;;;;3.53;1.30;;;16.60;94.70;;;;;;5095009;28;20540;-71
2022/09/06 06:14:08;;;;;;;4.03;2.33;;;16.70;94.30;;;;;;5088844;28;20485;-70
2022/09/06 06:16:35;;;;;;;3.00;2.33;;;16.70;94.90;;;;;;5074739;28;20541;-71
2022/09/06 06:19:02;;;;;;;2.50;1.90;;;16.70;94.40;;;;;;5075062;28;20540;-69
2022/09/06 06:21:30;;;;;;;3.20;2.23;;;16.80;94.50;;;;;;5074744;28;20812;-70
2022/09/06 06:23:59;;;;;;;2.87;1.60;;;16.80;94.30;;;;;;5074343;28;20493;-70
2022/09/06 06:26:28;;;;;;;2.17;1.97;;;16.90;94.20;;;;;;5072515;28;20537;-70
2022/09/06 06:28:56;;;;;;;2.90;2.03;;;16.90;94.10;;;;;;5072503;28;20454;-70
2022/09/06 06:31:24;;;;;;;6.40;2.10;;;17.00;94.10;;;;;;5072693;28;20458;-70
2022/09/06 06:33:51;;;;;;;5.30;2.60;;;17.00;93.90;;;;;;5072166;28;20537;-71
2022/09/06 06:36:21;;;;;;;5.37;2.20;;;17.00;94.10;;;;;;5072272;28;20572;-70
2022/09/06 06:38:49;;;;;;;3.20;1.80;;;17.10;94.20;;;;;;5072286;28;20460;-69
2022/09/06 06:41:19;;;;;;;2.73;1.70;;;17.20;93.80;;;;;;5072358;28;20939;-71
2022/09/06 06:43:46;;;;;;;2.23;1.57;;;17.20;93.90;;;;;;5072451;28;20454;-70
2022/09/06 06:46:14;;;;;;;2.07;1.50;;;17.30;93.80;;;;;;5072572;28;20839;-70
2022/09/06 06:48:43;;;;;;;2.77;1.20;;;17.40;93.30;;;;;;5072498;28;20480;-70
2022/09/06 06:51:12;;;;;;;4.07;1.73;;;17.50;93.50;;;;;;5084110;28;20540;-71
2022/09/06 06:53:39;;;;;;;3.10;1.80;;;17.60;93.10;;;;;;5092564;28;20548;-71
2022/09/06 06:56:15;;;;;;;2.83;1.80;;;17.60;93.20;;;;;;5092658;28;20564;-71
2022/09/06 06:58:42;;;;;;;4.13;1.90;;;17.70;93.60;;;;;;5092350;28;20437;-70
2022/09/06 07:01:09;;;;;;;4.80;2.00;;;17.90;93.20;;;;;;5092751;28;20485;-71
2022/09/06 07:03:36;;;;;;;2.80;1.63;;;17.90;92.70;;;;;;5092403;28;20861;-72
2022/09/06 07:06:05;;;;;;;3.63;1.93;;;18.00;92.70;;;;;;5092553;28;20910;-71
2022/09/06 07:08:32;;;;;;;4.63;2.00;;;18.10;92.40;;;;;;5092618;28;20544;-70
2022/09/06 07:10:59;;;;;;;4.57;2.20;;;18.20;92.20;;;;;;5092124;28;20532;-70
2022/09/06 07:13:26;;;;;;;1.97;1.60;;;18.20;92.20;;;;;;5091812;28;20957;-71
2022/09/06 07:16:09;;;;;;;2.70;2.30;;;18.30;92.50;;;;;;5092296;28;20477;-71
2022/09/06 07:18:40;;;;;;;2.23;1.97;;;18.40;93.10;;;;;;5092533;28;20466;-71
2022/09/06 07:21:09;;;;;;;3.33;2.00;;;18.40;92.20;;;;;;5093345;28;20499;-71
2022/09/06 07:23:36;;;;;;;3.53;1.83;;;18.50;92.80;;;;;;5093504;28;20526;-70
2022/09/06 07:26:03;;;;;;;6.47;3.50;;;18.60;91.80;;;;;;5092475;28;20552;-70
2022/09/06 07:28:31;;;;;;;3.93;1.97;;;18.60;92.40;;;;;;5093354;28;20556;-71
2022/09/06 07:30:59;;;;;;;7.40;2.37;;;18.70;92.00;;;;;;5072573;28;20481;-71
2022/09/06 07:33:26;;;;;;;4.07;2.40;;;18.80;92.20;;;;;;5071863;28;20927;-71
2022/09/06 07:35:57;;;;;;;3.30;2.00;;;18.80;91.80;;;;;;5071916;28;20783;-72
2022/09/06 07:38:26;;;;;;;3.33;2.17;;;18.90;91.80;;;;;;5071929;28;20945;-71
2022/09/06 07:40:53;;;;;;;4.53;2.40;;;18.90;91.80;;;;;;5072202;28;20792;-71
2022/09/06 07:43:20;;;;;;;3.27;2.13;;;18.90;91.50;;;;;;5071784;28;20485;-70
2022/09/06 07:45:47;;;;;;;4.20;1.93;;;19.00;91.70;;;;;;5071655;28;20895;-69
2022/09/06 07:48:14;;;;;;;4.00;1.90;;;19.00;91.90;;;;;;5072484;28;20465;-72
2022/09/06 07:50:42;;;;;;;8.73;2.47;;;19.00;91.90;;;;;;5075999;28;20548;-71
2022/09/06 07:53:09;;;;;;;4.47;2.30;;;19.00;92.60;;;;;;5075941;28;20549;-70
2022/09/06 07:55:37;;;;;;;5.23;2.23;;;19.10;92.90;;;;;;5077063;28;20516;-72
2022/09/06 07:58:05;;;;;;;3.43;2.60;;;19.20;92.70;;;;;;5076806;28;20541;-71
2022/09/06 08:00:31;;;;;;;3.93;2.13;;;19.30;92.90;;;;;;5077126;28;20493;-71
2022/09/06 08:02:58;;;;;;;3.90;2.23;;;19.40;93.10;;;;;;5076943;28;20536;-70
2022/09/06 08:05:25;;;;;;;5.10;2.77;;;19.60;93.00;;;;;;5077232;28;20886;-70
2022/09/06 08:07:52;;;;;;;3.03;2.73;;;19.70;92.60;;;;;;5076782;28;20958;-71
2022/09/06 08:10:19;;;;;;;3.50;2.70;;;19.80;92.40;;;;;;5077062;28;20488;-70
2022/09/06 08:12:47;;;;;;;7.53;2.77;;;19.90;91.60;;;;;;5076636;28;20454;-70
2022/09/06 08:15:14;;;;;;;3.10;2.80;;;19.90;91.40;;;;;;5076618;28;20557;-71
2022/09/06 08:17:41;;;;;;;3.13;2.60;;;19.90;91.80;;;;;;5076987;28;20645;-70
2022/09/06 08:20:09;;;;;;;4.87;3.03;;;19.90;92.30;;;;;;5076888;28;20516;-71
2022/09/06 08:22:36;;;;;;;5.60;2.30;;;19.90;92.70;;;;;;5077011;28;20515;-71
2022/09/06 08:25:03;;;;;;;5.03;2.97;;;20.00;92.80;;;;;;5077047;28;20449;-70
2022/09/06 08:27:29;;;;;;;5.93;3.13;;;20.10;93.40;;;;;;5076942;28;20454;-70
2022/09/06 08:29:58;;;;;;;5.27;2.97;;;20.20;93.20;;;;;;5076534;28;20490;-71
2022/09/06 08:32:25;;;;;;;5.93;2.27;;;20.30;93.30;;;;;;5076142;28;20971;-71
2022/09/06 08:34:52;;;;;;;5.23;2.80;;;20.40;92.20;;;;;;5076544;28;20474;-71
2022/09/06 08:37:19;;;;;;;4.27;2.77;;;20.50;91.80;;;;;;5076477;28;20514;-71
2022/09/06 08:39:46;;;;;;;4.33;2.87;;;20.50;92.00;;;;;;5076465;28;20454;-71
2022/09/06 08:42:13;;;;;;;7.43;2.57;;;20.50;91.70;;;;;;5076600;28;20541;-71
2022/09/06 08:44:42;;;;;;;8.93;2.70;;;20.50;91.90;;;;;;5076606;28;20546;-71
2022/09/06 08:47:12;;;;;;;7.00;2.63;;;20.50;92.60;;;;;;5076966;28;20458;-71
2022/09/06 08:49:43;;;;;;;2.87;2.60;;;20.60;92.30;;;;;;5076393;28;20557;-70
2022/09/06 08:52:37;;;;;;;4.20;3.20;;;20.60;92.60;;;;;;5076454;28;20447;-70
2022/09/06 08:55:22;;;;;;;4.00;2.63;;;20.70;92.80;;;;;;5076190;28;20490;-72
2022/09/06 08:58:04;;;;;;;2.40;2.20;;;20.80;92.30;;;;;;5076297;28;20526;-71
2022/09/06 09:00:32;;;;;;;3.90;2.83;;;20.80;92.30;;;;;;5074800;28;20470;-71
2022/09/06 09:03:08;;;;;;;3.20;2.40;;;20.90;92.20;;;;;;5076049;28;20549;-71
2022/09/06 09:05:37;;;;;;;3.90;2.50;;;21.00;92.00;;;;;;5076336;28;20525;-71
2022/09/06 09:08:12;;;;;;;6.47;3.13;;;21.10;91.60;;;;;;5076473;28;20512;-70
2022/09/06 09:10:42;;;;;;;4.53;2.57;;;21.20;91.50;;;;;;5076375;28;20530;-70
2022/09/06 09:13:20;;;;;;;5.53;2.70;;;21.20;91.20;;;;;;5075640;28;20565;-70
2022/09/06 09:15:47;;;;;;;4.60;2.90;;;21.30;91.20;;;;;;5075589;28;20865;-71
2022/09/06 09:18:21;;;;;;;6.03;2.60;;;21.30;90.80;;;;;;5075892;28;20830;-69
2022/09/06 09:20:48;;;;;;;6.90;3.90;;;21.30;91.20;;;;;;5075835;28;20822;-70
2022/09/06 09:23:15;;;;;;;2.77;2.40;;;21.40;91.20;;;;;;5075885;28;20511;-70
2022/09/06 09:25:45;;;;;;;7.57;2.80;;;21.50;90.90;;;;;;5075661;28;20497;-71
2022/09/06 09:28:17;;;;;;;4.13;2.43;;;21.60;90.90;;;;;;5075231;28;20465;-70
2022/09/06 09:30:50;;;;;;;4.90;2.90;;;21.60;90.60;;;;;;5075788;28;20529;-70
2022/09/06 09:33:27;;;;;;;4.70;2.73;;;21.70;91.10;;;;;;5075184;28;20525;-72
2022/09/06 09:35:55;;;;;;;3.40;2.87;;;21.90;90.10;;;;;;5074834;28;21009;-71
2022/09/06 09:38:24;;;;;;;3.53;3.07;;;21.90;90.00;;;;;;5075221;28;20939;-70
2022/09/06 09:40:53;;;;;;;3.63;2.50;;;22.00;89.30;;;;;;5075427;28;20454;-71
2022/09/06 09:43:22;;;;;;;4.07;2.50;;;22.10;87.50;;;;;;5075586;28;20482;-70
2022/09/06 09:46:13;;;;;;;4.33;2.20;;;22.10;88.30;;;;;;5075165;28;20847;-71
2022/09/06 09:48:48;;;;;;;2.47;2.27;;;22.20;86.40;;;;;;5075365;28;20496;-71
2022/09/06 09:51:21;;;;;;;3.83;2.67;;;22.20;87.10;;;;;;5075114;28;20438;-71
2022/09/06 09:53:54;;;;;;;4.80;2.30;;;22.20;85.70;;;;;;5075442;28;20846;-71
2022/09/06 09:56:44;;;;;;;4.00;3.40;;;22.20;86.50;;;;;;5074642;28;20478;-70
2022/09/06 09:59:37;;;;;;;3.10;2.30;;;22.30;88.20;;;;;;5071228;28;20461;-70
2022/09/06 10:02:21;;;;;;;4.27;2.67;;;22.30;85.90;;;;;;5033025;28;20561;-69
2022/09/06 10:04:52;;;;;;;2.57;2.20;;;22.40;84.90;;;;;;5032489;28;21012;-70
2022/09/06 10:07:21;;;;;;;5.67;2.33;;;22.40;85.10;;;;;;5033148;28;20498;-71
2022/09/06 10:09:50;;;;;;;4.90;2.10;;;22.50;85.40;;;;;;5033121;28;20460;-70
2022/09/06 10:12:18;;;;;;;4.60;2.40;;;22.50;85.60;;;;;;5032695;28;20952;-70
2022/09/06 10:14:47;;;;;;;3.27;2.30;;;22.60;85.50;;;;;;5032670;28;20561;-70
2022/09/06 10:17:28;;;;;;;3.60;2.50;;;22.70;84.90;;;;;;5033251;28;20462;-70
2022/09/06 10:19:58;;;;;;;3.43;2.33;;;22.80;84.50;;;;;;5033259;28;20463;-70
2022/09/06 10:22:30;;;;;;;3.97;2.33;;;22.80;84.20;;;;;;5034657;28;20881;-71
2022/09/06 10:25:30;;;;;;;6.10;2.30;;;22.80;83.60;;;;;;5034085;28;20483;-71
2022/09/06 10:28:20;;;;;;;5.33;2.43;;;22.80;83.00;;;;;;5033808;28;20460;-71
2022/09/06 10:30:59;;;;;;;4.83;3.10;;;22.90;84.50;;;;;;5033927;28;20780;-71
2022/09/06 10:33:34;;;;;;;5.60;2.90;;;23.00;85.00;;;;;;5033854;28;20462;-71
2022/09/06 10:36:04;;;;;;;5.53;3.00;;;23.10;84.80;;;;;;5033260;28;20483;-71
2022/09/06 10:38:39;;;;;;;3.83;2.57;;;23.30;84.00;;;;;;5047979;28;20454;-71
2022/09/06 10:41:25;;;;;;;7.40;2.83;;;23.40;83.50;;;;;;5075017;28;20447;-72
2022/09/06 10:43:59;;;;;;;4.10;2.90;;;23.50;82.20;;;;;;5075998;28;20438;-71
2022/09/06 10:46:27;;;;;;;4.73;3.20;;;23.60;82.80;;;;;;5075931;28;20448;-72
2022/09/06 10:48:54;;;;;;;4.13;2.60;;;23.70;81.70;;;;;;5075887;28;20458;-72
2022/09/06 10:51:32;;;;;;;4.17;2.47;;;23.70;81.10;;;;;;5074947;28;20454;-72
2022/09/06 10:54:07;;;;;;;3.33;2.37;;;23.80;79.80;;;;;;5075412;28;20448;-72
2022/09/06 10:56:39;;;;;;;6.50;2.27;;;23.80;77.40;;;;;;5074929;28;20575;-72
2022/09/06 10:59:15;;;;;;;6.20;2.77;;;23.80;77.50;;;;;;5076563;28;20466;-72
2022/09/06 11:01:50;;;;;;;4.33;2.60;;;23.80;77.00;;;;;;5075135;28;20446;-72
2022/09/06 11:04:25;;;;;;;2.90;2.10;;;23.70;76.20;;;;;;5074659;28;20977;-72
2022/09/06 11:07:00;;;;;;;26.67;4.17;;;23.70;78.00;;;;;;5074950;28;20525;-72
2022/09/06 11:09:31;;;;;;;8.40;3.10;;;23.80;76.90;;;;;;5075050;28;20445;-72
2022/09/06 11:12:06;;;;;;;6.57;2.80;;;23.70;77.50;;;;;;5074766;28;20447;-72
2022/09/06 11:14:35;;;;;;;21.80;3.77;;;23.80;78.30;;;;;;5074806;28;20481;-70
2022/09/06 11:17:06;;;;;;;16.33;4.00;;;23.90;78.70;;;;;;5074698;28;20499;-70
2022/09/06 11:19:38;;;;;;;4.80;3.13;;;24.00;78.20;;;;;;5074617;28;20939;-71
2022/09/06 11:22:46;;;;;;;10.67;3.40;;;24.10;77.80;;;;;;5075162;28;20443;-71
2022/09/06 11:25:49;;;;;;;5.97;2.57;;;24.20;76.20;;;;;;5078676;28;20456;-72
2022/09/06 11:28:21;;;;;;;5.10;2.60;;;24.20;76.00;;;;;;5078449;28;20502;-72
2022/09/06 11:30:49;;;;;;;5.50;2.80;;;24.10;74.80;;;;;;5078753;28;20442;-72
2022/09/06 11:33:23;;;;;;;4.13;3.07;;;24.00;76.00;;;;;;5078828;28;20450;-71
2022/09/06 11:35:51;;;;;;;3.30;3.00;;;24.00;75.10;;;;;;5078527;28;20465;-71
2022/09/06 11:38:26;;;;;;;4.63;3.23;;;23.90;74.70;;;;;;5077416;28;20489;-71
2022/09/06 11:40:59;;;;;;;4.30;2.70;;;23.80;73.20;;;;;;5077568;28;20883;-71
2022/09/06 11:43:44;;;;;;;3.40;3.10;;;23.80;74.50;;;;;;5078262;28;20891;-71
2022/09/06 11:46:32;;;;;;;3.90;2.93;;;23.80;73.40;;;;;;5077529;28;20519;-71
2022/09/06 11:49:03;;;;;;;5.67;3.57;;;23.70;74.00;;;;;;5078059;28;20504;-71
2022/09/06 11:51:33;;;;;;;3.57;2.90;;;23.70;75.10;;;;;;5077644;28;20461;-71
2022/09/06 11:54:22;;;;;;;9.90;3.13;;;23.70;74.90;;;;;;5077903;28;20517;-71
2022/09/06 11:56:55;;;;;;;5.73;5.13;;;23.70;75.70;;;;;;5077850;28;20933;-71
2022/09/06 11:59:42;;;;;;;6.90;5.80;;;23.70;75.60;;;;;;5077706;28;20529;-72
2022/09/06 12:02:31;;;;;;;7.87;5.07;;;23.80;77.10;;;;;;5078360;28;20537;-71
2022/09/06 12:05:17;;;;;;;5.63;3.70;;;23.90;76.30;;;;;;5077807;28;20439;-71
2022/09/06 12:08:33;;;;;;;5.00;3.73;;;23.90;75.90;;;;;;5077894;28;20439;-71
2022/09/06 12:11:23;;;;;;;4.30;3.20;;;23.90;75.10;;;;;;5078170;28;20772;-71
2022/09/06 12:14:02;;;;;;;4.03;3.10;;;24.00;75.70;;;;;;5077776;28;20539;-71
2022/09/06 12:17:03;;;;;;;6.97;5.83;;;24.00;74.90;;;;;;5077600;28;20466;-72
2022/09/06 12:19:43;;;;;;;7.93;3.33;;;24.00;75.90;;;;;;5077518;28;20466;-71
2022/09/06 12:23:03;;;;;;;3.17;2.80;;;24.00;76.20;;;;;;5077406;28;20450;-71
2022/09/06 12:26:00;;;;;;;4.10;3.43;;;24.00;75.40;;;;;;5077773;28;20438;-71
2022/09/06 12:28:40;;;;;;;8.63;4.80;;;24.10;76.00;;;;;;5035448;28;20504;-72
2022/09/06 12:31:34;;;;;;;6.10;4.77;;;24.10;75.50;;;;;;5036029;28;20542;-71
2022/09/06 12:34:08;;;;;;;8.20;4.00;;;24.20;76.40;;;;;;5035459;28;20477;-72
2022/09/06 12:36:35;;;;;;;5.63;3.67;;;24.20;75.60;;;;;;5035684;28;20671;-71
2022/09/06 12:39:04;;;;;;;7.97;4.00;;;24.20;76.40;;;;;;5035959;28;20498;-71
2022/09/06 12:41:36;;;;;;;5.97;3.63;;;24.20;76.10;;;;;;5035948;28;20455;-72
2022/09/06 12:44:06;;;;;;;4.97;3.53;;;24.20;75.20;;;;;;5036757;28;20464;-72
2022/09/06 12:46:34;;;;;;;7.17;3.43;;;24.30;74.00;;;;;;5039205;28;20456;-71
2022/09/06 12:49:03;;;;;;;3.90;3.20;;;24.40;75.40;;;;;;5037733;28;20494;-71
2022/09/06 12:51:30;;;;;;;3.57;3.27;;;24.40;76.40;;;;;;5035783;28;20462;-71
2022/09/06 12:53:59;;;;;;;10.20;3.40;;;24.50;74.80;;;;;;5036298;28;20470;-71
2022/09/06 12:56:28;;;;;;;7.93;4.10;;;24.60;75.00;;;;;;5035834;28;20479;-71
2022/09/06 12:59:13;;;;;;;6.77;3.43;;;24.70;75.20;;;;;;5036099;28;20539;-72
2022/09/06 13:01:43;;;;;;;6.90;3.20;;;24.80;75.80;;;;;;5040457;28;20466;-72
2022/09/06 13:04:17;;;;;;;4.70;3.63;;;24.90;75.20;;;;;;5077617;28;20437;-71
2022/09/06 13:06:47;;;;;;;7.60;3.43;;;25.00;75.50;;;;;;5077634;28;20764;-72